createdAt,value
2023-05-05T00:00:25.740Z,40.80
2023-05-05T00:02:53.486Z,41.67
2023-05-05T00:05:20.371Z,38.35
2023-05-05T00:07:46.950Z,38.53
2023-05-05T00:10:13.697Z,30.05
2023-05-05T00:12:40.473Z,35.10
2023-05-05T00:15:08.587Z,33.75
2023-05-05T00:17:35.226Z,40.95
2023-05-05T00:20:02.129Z,49.20
2023-05-05T00:22:29.084Z,43.28
2023-05-05T00:24:56.077Z,39.13
2023-05-05T00:27:22.829Z,40.97
2023-05-05T00:29:49.400Z,45.42
2023-05-05T00:32:16.203Z,48.63
2023-05-05T00:34:42.823Z,42.70
2023-05-05T00:37:09.450Z,40.78
2023-05-05T00:39:37.462Z,41.72
2023-05-05T00:42:04.355Z,46.53
2023-05-05T00:44:37.628Z,44.90
2023-05-05T00:47:04.507Z,48.33
2023-05-05T00:49:31.743Z,46.60
2023-05-05T00:51:59.249Z,48.72
2023-05-05T00:54:26.091Z,50.78
2023-05-05T00:56:53.448Z,49.22
2023-05-05T00:59:20.886Z,54.50
2023-05-05T01:01:47.613Z,47.08
2023-05-05T01:04:14.223Z,43.40
2023-05-05T01:06:54.053Z,43.63
2023-05-05T01:09:57.939Z,50.47
2023-05-05T01:12:37.741Z,40.67
2023-05-05T01:15:15.261Z,43.25
2023-05-05T01:17:51.687Z,53.60
2023-05-05T01:20:23.747Z,56.10
2023-05-05T01:22:55.025Z,56.75
2023-05-05T01:25:30.380Z,49.10
2023-05-05T01:28:15.641Z,45.38
2023-05-05T01:30:48.026Z,52.80
2023-05-05T01:33:19.298Z,53.45
2023-05-05T01:35:55.415Z,57.15
2023-05-05T01:38:26.281Z,54.15
2023-05-05T01:40:57.688Z,63.33
2023-05-05T01:43:29.591Z,57.60
2023-05-05T01:45:58.633Z,46.75
2023-05-05T01:48:26.469Z,53.10
2023-05-05T01:50:54.089Z,44.92
2023-05-05T01:53:23.775Z,53.08
2023-05-05T01:55:52.677Z,49.58
2023-05-05T01:58:22.811Z,44.50
2023-05-05T02:00:51.030Z,45.30
2023-05-05T02:03:19.692Z,45.53
2023-05-05T02:05:48.623Z,40.42
2023-05-05T02:08:16.461Z,43.97
2023-05-05T02:10:45.000Z,42.97
2023-05-05T02:13:13.281Z,39.55
2023-05-05T02:15:41.194Z,43.10
2023-05-05T02:18:11.997Z,46.38
2023-05-05T02:20:39.875Z,52.92
2023-05-05T02:23:08.069Z,53.78
2023-05-05T02:25:42.076Z,62.10
2023-05-05T02:28:18.482Z,58.70
2023-05-05T02:30:51.555Z,54.85
2023-05-05T02:33:22.105Z,59.20
2023-05-05T02:35:51.438Z,63.60
2023-05-05T02:38:26.461Z,65.43
2023-05-05T02:40:57.463Z,76.32
2023-05-05T02:43:25.887Z,62.50
2023-05-05T02:45:52.676Z,51.20
2023-05-05T02:48:19.398Z,51.45
2023-05-05T02:50:46.009Z,53.35
2023-05-05T02:53:13.023Z,62.75
2023-05-05T02:55:45.437Z,60.70
2023-05-05T02:58:23.715Z,57.58
2023-05-05T03:00:53.787Z,55.85
2023-05-05T03:03:30.842Z,46.97
2023-05-05T03:06:27.364Z,48.15
2023-05-05T03:09:03.124Z,49.30
2023-05-05T03:11:37.030Z,41.13
2023-05-05T03:14:13.212Z,45.72
2023-05-05T03:16:42.650Z,54.20
2023-05-05T03:19:12.410Z,47.25
2023-05-05T03:21:40.885Z,52.00
2023-05-05T03:24:14.053Z,47.40
2023-05-05T03:26:41.824Z,47.47
2023-05-05T03:29:08.565Z,46.65
2023-05-05T03:31:35.687Z,53.10
2023-05-05T03:34:02.362Z,54.05
2023-05-05T03:36:29.944Z,54.80
2023-05-05T03:38:56.571Z,57.55
2023-05-05T03:41:23.844Z,60.00
2023-05-05T03:43:51.639Z,57.33
2023-05-05T03:46:18.356Z,59.25
2023-05-05T03:48:45.415Z,86.55
2023-05-05T03:51:13.175Z,100.60
2023-05-05T03:53:40.118Z,106.47
2023-05-05T03:56:06.905Z,115.32
2023-05-05T03:58:33.604Z,129.00
2023-05-05T04:01:00.275Z,120.80
2023-05-05T04:03:27.071Z,115.40
2023-05-05T04:05:53.876Z,95.20
2023-05-05T04:08:20.530Z,103.82
2023-05-05T04:10:47.125Z,112.88
2023-05-05T04:13:13.829Z,112.93
2023-05-05T04:15:47.181Z,115.13
2023-05-05T04:18:14.306Z,123.50
2023-05-05T04:20:41.121Z,130.13
2023-05-05T04:23:10.117Z,122.32
2023-05-05T04:25:36.764Z,133.17
2023-05-05T04:28:03.504Z,119.18
2023-05-05T04:30:30.158Z,126.30
2023-05-05T04:32:57.025Z,115.80
2023-05-05T04:35:23.661Z,107.60
2023-05-05T04:37:50.300Z,103.93
2023-05-05T04:40:17.084Z,107.60
2023-05-05T04:42:43.734Z,94.30
2023-05-05T04:45:10.828Z,95.93
2023-05-05T04:47:38.883Z,96.97
2023-05-05T04:50:06.372Z,86.75
2023-05-05T04:52:33.439Z,79.20
2023-05-05T04:55:00.610Z,77.57
2023-05-05T04:57:27.489Z,72.70
2023-05-05T04:59:54.076Z,61.20
2023-05-05T05:02:21.280Z,53.38
2023-05-05T05:04:47.966Z,47.47
2023-05-05T05:07:15.153Z,50.58
2023-05-05T05:09:41.756Z,42.13
2023-05-05T05:12:09.800Z,44.17
2023-05-05T05:14:40.107Z,43.13
2023-05-05T05:17:07.882Z,43.97
2023-05-05T05:19:34.673Z,37.85
2023-05-05T05:22:01.404Z,40.90
2023-05-05T05:24:28.118Z,40.08
2023-05-05T05:26:54.772Z,38.05
2023-05-05T05:29:21.447Z,36.33
2023-05-05T05:31:50.334Z,39.38
2023-05-05T05:34:16.995Z,35.37
2023-05-05T05:36:43.637Z,32.90
2023-05-05T05:39:10.255Z,33.13
2023-05-05T05:41:36.841Z,32.30
2023-05-05T05:44:03.521Z,32.13
2023-05-05T05:46:30.292Z,30.65
2023-05-05T05:48:57.367Z,27.25
2023-05-05T05:51:24.017Z,28.27
2023-05-05T05:53:51.893Z,29.17
2023-05-05T05:56:18.487Z,26.45
2023-05-05T05:58:45.333Z,30.35
2023-05-05T06:01:12.034Z,24.77
2023-05-05T06:03:38.725Z,24.90
2023-05-05T06:06:05.619Z,29.10
2023-05-05T06:08:32.320Z,25.15
2023-05-05T06:11:00.595Z,23.77
2023-05-05T06:13:27.366Z,22.25
2023-05-05T06:15:55.134Z,21.02
2023-05-05T06:18:21.878Z,20.35
2023-05-05T06:20:52.394Z,21.42
2023-05-05T06:23:23.291Z,20.80
2023-05-05T06:25:51.208Z,17.50
2023-05-05T06:28:18.733Z,17.42
2023-05-05T06:30:45.498Z,18.15
2023-05-05T06:33:15.120Z,17.55
2023-05-05T06:35:41.772Z,14.50
2023-05-05T06:38:08.616Z,16.52
2023-05-05T06:40:35.406Z,14.55
2023-05-05T06:43:02.061Z,16.73
2023-05-05T06:45:28.693Z,22.90
2023-05-05T06:47:55.714Z,14.13
2023-05-05T06:50:22.386Z,12.95
2023-05-05T06:52:49.108Z,13.43
2023-05-05T06:55:15.841Z,11.82
2023-05-05T06:57:42.464Z,13.00
2023-05-05T07:00:11.484Z,21.70
2023-05-05T07:02:38.698Z,30.10
2023-05-05T07:05:05.997Z,16.15
2023-05-05T07:07:32.718Z,11.77
2023-05-05T07:09:59.391Z,25.88
2023-05-05T07:12:26.138Z,19.35
2023-05-05T07:14:52.794Z,12.27
2023-05-05T07:17:19.495Z,20.88
2023-05-05T07:19:46.119Z,13.15
2023-05-05T07:22:12.821Z,13.93
2023-05-05T07:24:39.461Z,13.50
2023-05-05T07:27:06.992Z,15.30
2023-05-05T07:29:33.637Z,12.38
2023-05-05T07:32:00.314Z,11.35
2023-05-05T07:34:27.604Z,21.13
2023-05-05T07:36:57.542Z,15.40
2023-05-05T07:39:24.213Z,13.30
2023-05-05T07:41:51.907Z,16.48
2023-05-05T07:44:18.525Z,9.73
2023-05-05T07:46:48.005Z,11.57
2023-05-05T07:51:41.339Z,14.38
2023-05-05T07:54:08.373Z,9.73
2023-05-05T07:56:38.028Z,13.75
2023-05-05T07:59:04.682Z,9.75
2023-05-05T08:01:31.277Z,12.27
2023-05-05T08:03:58.188Z,13.65
2023-05-05T08:06:25.245Z,13.27
2023-05-05T08:08:53.428Z,11.85
2023-05-05T08:11:20.820Z,9.68
2023-05-05T08:13:48.650Z,13.10
2023-05-05T08:16:15.813Z,13.23
2023-05-05T08:18:42.508Z,11.13
2023-05-05T08:21:10.080Z,10.32
2023-05-05T08:23:38.752Z,11.35
2023-05-05T08:26:06.728Z,10.60
2023-05-05T08:28:38.981Z,10.57
2023-05-05T08:31:06.849Z,12.85
2023-05-05T08:33:34.385Z,12.20
2023-05-05T08:36:01.178Z,11.50
2023-05-05T08:38:27.837Z,13.43
2023-05-05T08:40:57.587Z,12.68
2023-05-05T08:43:24.322Z,16.60
2023-05-05T08:45:53.697Z,14.80
2023-05-05T08:48:21.050Z,14.73
2023-05-05T08:50:52.872Z,12.52
2023-05-05T08:53:36.651Z,12.85
2023-05-05T08:56:08.939Z,11.48
2023-05-05T08:58:37.559Z,12.75
2023-05-05T09:01:07.447Z,14.00
2023-05-05T09:03:36.867Z,12.05
2023-05-05T09:08:31.865Z,16.33
2023-05-05T09:10:59.680Z,11.57
2023-05-05T09:13:26.453Z,15.27
2023-05-05T09:15:53.182Z,13.68
2023-05-05T09:18:19.801Z,14.88
2023-05-05T09:20:46.474Z,10.48
2023-05-05T09:23:15.238Z,12.63
2023-05-05T09:25:45.235Z,10.00
2023-05-05T09:28:16.478Z,12.25
2023-05-05T09:30:48.375Z,7.63
2023-05-05T09:33:28.997Z,9.43
2023-05-05T09:35:56.228Z,12.07
2023-05-05T09:38:28.563Z,9.77
2023-05-05T09:40:55.294Z,9.00
2023-05-05T09:43:23.901Z,9.88
2023-05-05T09:45:51.211Z,13.47
2023-05-05T09:48:26.749Z,12.00
2023-05-05T09:50:58.791Z,8.77
2023-05-05T09:53:26.579Z,16.30
2023-05-05T09:56:00.977Z,10.05
2023-05-05T09:58:29.544Z,10.93
2023-05-05T10:00:57.668Z,11.27
2023-05-05T10:03:25.305Z,19.73
2023-05-05T10:05:54.164Z,18.05
2023-05-05T10:08:22.691Z,12.35
2023-05-05T10:10:56.292Z,18.02
2023-05-05T10:13:24.544Z,21.65
2023-05-05T10:15:53.253Z,22.05
2023-05-05T10:18:22.734Z,14.05
2023-05-05T10:23:22.709Z,18.33
2023-05-05T10:26:01.691Z,17.55
2023-05-05T10:28:42.193Z,14.10
2023-05-05T10:31:25.633Z,14.90
2023-05-05T10:33:58.707Z,20.25
2023-05-05T10:36:25.920Z,21.58
2023-05-05T10:38:57.256Z,15.95
2023-05-05T10:41:26.110Z,11.07
2023-05-05T10:43:57.685Z,14.93
2023-05-05T10:46:27.118Z,13.25
2023-05-05T10:48:56.982Z,8.48
2023-05-05T10:51:46.950Z,14.60
2023-05-05T10:54:38.523Z,15.20
2023-05-05T10:57:09.753Z,17.40
2023-05-05T10:59:39.171Z,16.52
2023-05-05T11:05:17.033Z,17.95
2023-05-05T11:07:50.052Z,9.80
2023-05-05T11:10:23.295Z,13.68
2023-05-05T11:13:10.199Z,10.52
2023-05-05T11:15:38.064Z,10.45
2023-05-05T11:18:08.294Z,12.48
2023-05-05T11:20:35.447Z,11.20
2023-05-05T11:23:05.448Z,13.52
2023-05-05T11:25:35.750Z,9.05
2023-05-05T11:28:08.653Z,9.98
2023-05-05T11:30:36.700Z,15.88
2023-05-05T11:33:38.374Z,24.10
2023-05-05T11:36:06.794Z,13.38
2023-05-05T11:38:52.490Z,11.48
2023-05-05T11:41:33.886Z,8.70
2023-05-05T11:44:09.895Z,7.28
2023-05-05T11:46:36.571Z,8.88
2023-05-05T11:49:03.611Z,9.68
2023-05-05T11:51:31.686Z,10.05
2023-05-05T11:53:59.213Z,11.05
2023-05-05T11:56:29.284Z,15.40
2023-05-05T11:59:11.413Z,14.27
2023-05-05T12:01:41.500Z,10.63
2023-05-05T12:04:26.646Z,11.85
2023-05-05T12:06:55.448Z,10.05
2023-05-05T12:09:23.272Z,7.35
2023-05-05T12:11:54.231Z,10.88
2023-05-05T12:14:22.847Z,9.07
2023-05-05T12:17:04.085Z,7.03
2023-05-05T12:19:33.408Z,13.82
2023-05-05T12:24:28.090Z,9.60
2023-05-05T12:26:54.673Z,11.90
2023-05-05T12:29:25.611Z,8.93
2023-05-05T12:31:52.390Z,10.23
2023-05-05T12:34:19.564Z,9.15
2023-05-05T12:36:46.714Z,7.13
2023-05-05T12:39:13.467Z,8.88
2023-05-05T12:41:40.354Z,11.18
2023-05-05T12:44:07.181Z,10.23
2023-05-05T12:46:47.176Z,13.50
2023-05-05T12:49:15.277Z,12.18
2023-05-05T12:51:56.290Z,8.85
2023-05-05T12:54:25.149Z,8.40
2023-05-05T12:56:51.796Z,14.60
2023-05-05T12:59:21.201Z,8.63
2023-05-05T13:02:00.154Z,8.25
2023-05-05T13:04:28.120Z,6.93
2023-05-05T13:07:15.779Z,7.32
2023-05-05T13:09:42.706Z,10.98
2023-05-05T13:12:12.145Z,6.97
2023-05-05T13:14:39.574Z,12.68
2023-05-05T13:17:06.517Z,17.52
2023-05-05T13:19:35.555Z,10.57
2023-05-05T13:22:02.615Z,9.20
2023-05-05T13:24:46.379Z,23.55
2023-05-05T13:27:13.865Z,12.18
2023-05-05T13:29:41.743Z,15.23
2023-05-05T13:32:08.495Z,13.77
2023-05-05T13:34:35.096Z,9.43
2023-05-05T13:37:01.722Z,8.88
2023-05-05T13:39:28.391Z,10.93
2023-05-05T13:41:55.078Z,6.15
2023-05-05T13:44:22.105Z,6.07
2023-05-05T13:46:48.894Z,8.82
2023-05-05T13:49:15.635Z,13.85
2023-05-05T13:51:42.302Z,9.75
2023-05-05T13:54:09.739Z,6.85
2023-05-05T13:56:36.615Z,8.73
2023-05-05T13:59:03.520Z,5.63
2023-05-05T14:01:30.553Z,9.70
2023-05-05T14:03:58.003Z,8.00
2023-05-05T14:06:25.088Z,9.55
2023-05-05T14:08:52.154Z,6.90
2023-05-05T14:11:20.773Z,8.20
2023-05-05T14:13:47.570Z,7.03
2023-05-05T14:16:14.560Z,6.75
2023-05-05T14:18:41.315Z,8.55
2023-05-05T14:21:08.045Z,11.55
2023-05-05T14:23:34.709Z,7.85
2023-05-05T14:26:01.513Z,7.85
2023-05-05T14:28:30.882Z,8.07
2023-05-05T14:30:57.902Z,10.57
2023-05-05T14:33:24.599Z,6.00
2023-05-05T14:35:51.298Z,10.15
2023-05-05T14:38:18.117Z,6.05
2023-05-05T14:40:44.810Z,7.60
2023-05-05T14:43:11.413Z,10.35
2023-05-05T14:45:38.135Z,9.65
2023-05-05T14:48:04.954Z,9.02
2023-05-05T14:50:31.551Z,8.93
2023-05-05T14:52:58.308Z,12.93
2023-05-05T14:55:25.136Z,9.23
2023-05-05T14:57:52.105Z,6.18
2023-05-05T15:00:19.845Z,8.10
2023-05-05T15:02:48.212Z,15.98
2023-05-05T15:05:15.218Z,6.53
2023-05-05T15:07:42.942Z,7.90
2023-05-05T15:10:11.668Z,9.93
2023-05-05T15:12:39.085Z,7.30
2023-05-05T15:15:11.100Z,6.72
2023-05-05T15:17:38.936Z,12.15
2023-05-05T15:20:06.889Z,11.15
2023-05-05T15:22:33.965Z,6.45
2023-05-05T15:25:01.266Z,6.82
2023-05-05T15:27:28.137Z,9.88
2023-05-05T15:30:41.792Z,8.18
2023-05-05T15:33:08.468Z,8.82
2023-05-05T15:35:36.293Z,6.78
2023-05-05T15:38:03.368Z,6.22
2023-05-05T15:40:30.148Z,5.68
2023-05-05T15:42:57.383Z,7.28
2023-05-05T15:45:24.111Z,7.05
2023-05-05T15:47:50.943Z,7.90
2023-05-05T15:50:17.678Z,6.70
2023-05-05T15:52:44.445Z,9.57
2023-05-05T15:55:11.902Z,8.30
2023-05-05T15:57:41.427Z,7.30
2023-05-05T16:02:35.461Z,5.45
2023-05-05T16:05:02.449Z,7.75
2023-05-05T16:07:29.281Z,6.93
2023-05-05T16:09:56.824Z,7.25
2023-05-05T16:12:23.399Z,6.20
2023-05-05T16:14:50.043Z,12.55
2023-05-05T16:17:16.628Z,8.07
2023-05-05T16:19:43.211Z,7.30
2023-05-05T16:22:09.951Z,7.47
2023-05-05T16:24:36.690Z,9.43
2023-05-05T16:27:04.292Z,9.38
2023-05-05T16:29:30.930Z,6.60
2023-05-05T16:31:58.936Z,8.40
2023-05-05T16:34:25.789Z,9.88
2023-05-05T16:36:53.453Z,8.95
2023-05-05T16:39:20.162Z,8.85
2023-05-05T16:41:46.758Z,7.40
2023-05-05T16:44:14.488Z,8.00
2023-05-05T16:46:41.181Z,7.07
2023-05-05T16:49:07.885Z,10.85
2023-05-05T16:51:34.559Z,5.57
2023-05-05T16:54:01.245Z,5.70
2023-05-05T16:56:27.931Z,11.38
2023-05-05T16:58:54.550Z,11.60
2023-05-05T17:01:21.182Z,8.70
2023-05-05T17:03:47.788Z,7.55
2023-05-05T17:06:14.489Z,6.10
2023-05-05T17:08:41.171Z,5.97
2023-05-05T17:11:10.878Z,6.00
2023-05-05T17:13:38.241Z,8.50
2023-05-05T17:16:07.798Z,7.75
2023-05-05T17:18:34.595Z,6.15
2023-05-05T17:21:01.278Z,11.00
2023-05-05T17:23:28.051Z,8.70
2023-05-05T17:25:54.784Z,7.88
2023-05-05T17:28:21.396Z,5.75
2023-05-05T17:30:47.992Z,9.25
2023-05-05T17:33:16.865Z,8.13
2023-05-05T17:35:43.591Z,8.07
2023-05-05T17:38:10.168Z,7.30
2023-05-05T17:40:36.750Z,7.45
2023-05-05T17:43:03.343Z,8.50
2023-05-05T17:45:30.752Z,7.15
2023-05-05T17:47:57.550Z,7.63
2023-05-05T17:50:25.300Z,12.43
2023-05-05T17:52:52.081Z,7.72
2023-05-05T17:55:19.438Z,8.18
2023-05-05T17:57:47.339Z,16.83
2023-05-05T18:00:14.286Z,7.03
2023-05-05T18:02:41.091Z,10.65
2023-05-05T18:05:09.126Z,7.28
2023-05-05T18:07:35.874Z,8.63
2023-05-05T18:10:02.517Z,12.20
2023-05-05T18:12:29.108Z,9.18
2023-05-05T18:14:55.692Z,8.43
2023-05-05T18:17:22.509Z,33.92
2023-05-05T18:19:49.649Z,42.80
2023-05-05T18:22:16.465Z,35.25
2023-05-05T18:24:43.394Z,11.70
2023-05-05T18:27:09.975Z,21.50
2023-05-05T18:29:36.670Z,16.48
2023-05-05T18:32:05.921Z,21.05
2023-05-05T18:34:32.948Z,11.70
2023-05-05T18:37:00.429Z,7.80
2023-05-05T18:39:27.198Z,17.05
2023-05-05T18:41:53.890Z,10.38
2023-05-05T18:44:20.488Z,9.52
2023-05-05T18:46:47.321Z,19.00
2023-05-05T18:49:14.120Z,23.88
2023-05-05T18:51:41.444Z,10.80
2023-05-05T18:54:08.098Z,63.13
2023-05-05T18:56:34.697Z,109.63
2023-05-05T18:59:01.345Z,117.00
2023-05-05T19:01:28.197Z,180.95
2023-05-05T19:03:54.902Z,105.68
2023-05-05T19:06:21.676Z,72.30
2023-05-05T19:08:48.355Z,35.67
2023-05-05T19:11:15.261Z,32.80
2023-05-05T19:13:42.495Z,32.20
2023-05-05T19:16:11.272Z,30.95
2023-05-05T19:18:38.512Z,78.55
2023-05-05T19:21:05.413Z,50.63
2023-05-05T19:23:32.268Z,21.15
2023-05-05T19:25:59.022Z,12.80
2023-05-05T19:28:25.674Z,14.68
2023-05-05T19:30:52.557Z,61.08
2023-05-05T19:33:19.253Z,81.65
2023-05-05T19:35:45.908Z,56.67
2023-05-05T19:38:12.726Z,47.78
2023-05-05T19:40:39.848Z,76.15
2023-05-05T19:43:06.885Z,49.38
2023-05-05T19:45:33.977Z,45.42
2023-05-05T19:48:02.411Z,43.30
2023-05-05T19:50:30.483Z,48.60
2023-05-05T19:52:57.840Z,41.30
2023-05-05T19:55:24.607Z,44.67
2023-05-05T19:57:51.465Z,23.35
2023-05-05T20:00:19.619Z,48.85
2023-05-05T20:02:46.489Z,26.05
2023-05-05T20:05:14.967Z,19.52
2023-05-05T20:07:44.413Z,17.75
2023-05-05T20:10:13.215Z,32.25
2023-05-05T20:12:42.503Z,27.98
2023-05-05T20:15:10.972Z,20.77
2023-05-05T20:17:37.752Z,23.45
2023-05-05T20:20:04.815Z,15.52
2023-05-05T20:22:31.536Z,16.48
2023-05-05T20:24:58.354Z,12.65
2023-05-05T20:27:26.644Z,21.52
2023-05-05T20:29:54.646Z,21.92
2023-05-05T20:32:21.398Z,18.40
2023-05-05T20:34:50.906Z,16.88
2023-05-05T20:37:17.541Z,10.82
2023-05-05T20:39:44.261Z,12.15
2023-05-05T20:42:13.036Z,10.73
2023-05-05T20:44:40.075Z,18.95
2023-05-05T20:47:07.438Z,13.05
2023-05-05T20:49:34.652Z,21.75
2023-05-05T20:52:03.247Z,11.82
2023-05-05T20:54:36.222Z,15.10
2023-05-05T20:57:02.856Z,11.20
2023-05-05T20:59:29.565Z,15.98
2023-05-05T21:01:59.342Z,21.55
2023-05-05T21:04:26.018Z,14.75
2023-05-05T21:06:52.652Z,15.20
2023-05-05T21:09:21.475Z,19.15
2023-05-05T21:11:48.834Z,22.13
2023-05-05T21:14:16.446Z,15.00
2023-05-05T21:16:43.173Z,12.65
2023-05-05T21:19:09.863Z,14.88
2023-05-05T21:21:36.624Z,14.43
2023-05-05T21:24:05.512Z,16.33
2023-05-05T21:26:33.785Z,13.93
2023-05-05T21:29:00.382Z,17.23
2023-05-05T21:31:27.058Z,12.40
2023-05-05T21:33:54.266Z,12.52
2023-05-05T21:36:21.330Z,13.13
2023-05-05T21:38:47.998Z,17.63
2023-05-05T21:41:15.759Z,14.68
2023-05-05T21:43:42.397Z,17.73
2023-05-05T21:46:09.056Z,14.65
2023-05-05T21:48:38.790Z,17.67
2023-05-05T21:53:32.237Z,13.88
2023-05-05T21:55:59.095Z,20.25
2023-05-05T21:58:28.417Z,16.13
2023-05-05T22:00:55.049Z,14.25
2023-05-05T22:03:21.705Z,14.77
2023-05-05T22:05:48.346Z,22.67
2023-05-05T22:08:14.958Z,17.88
2023-05-05T22:10:41.758Z,35.13
2023-05-05T22:13:10.358Z,15.82
2023-05-05T22:15:45.989Z,22.17
2023-05-05T22:18:13.173Z,26.58
2023-05-05T22:20:43.049Z,26.88
2023-05-05T22:25:36.273Z,26.05
2023-05-05T22:28:02.916Z,31.95
2023-05-05T22:30:29.736Z,19.25
2023-05-05T22:32:56.585Z,15.40
2023-05-05T22:35:23.302Z,24.42
2023-05-05T22:37:49.920Z,18.95
2023-05-05T22:40:16.593Z,15.13
2023-05-05T22:42:43.818Z,17.75
2023-05-05T22:45:11.018Z,51.33
2023-05-05T22:47:40.907Z,31.35
2023-05-05T22:50:08.414Z,18.55
2023-05-05T22:52:35.149Z,17.27
2023-05-05T22:55:01.845Z,16.45
2023-05-05T22:57:28.555Z,15.43
2023-05-05T22:59:55.209Z,18.98
2023-05-05T23:02:22.032Z,19.20
2023-05-05T23:04:48.726Z,21.10
2023-05-05T23:07:15.497Z,17.73
2023-05-05T23:09:42.159Z,21.25
2023-05-05T23:12:08.833Z,18.70
2023-05-05T23:14:36.083Z,16.67
2023-05-05T23:17:03.964Z,18.40
2023-05-05T23:19:32.684Z,17.48
2023-05-05T23:22:01.748Z,16.48
2023-05-05T23:24:28.670Z,18.10
2023-05-05T23:26:58.346Z,17.83
2023-05-05T23:29:24.982Z,21.05
2023-05-05T23:31:51.608Z,29.38
2023-05-05T23:34:20.255Z,23.48
2023-05-05T23:36:46.833Z,19.23
2023-05-05T23:39:13.442Z,18.08
2023-05-05T23:41:40.044Z,19.67
2023-05-05T23:44:06.816Z,20.88
2023-05-05T23:46:33.439Z,19.05
2023-05-05T23:49:00.065Z,15.90
2023-05-05T23:51:27.413Z,14.10
2023-05-05T23:53:55.865Z,14.55
2023-05-05T23:56:23.540Z,16.98
2023-05-05T23:58:50.189Z,17.38
